Time;durP1;ratioP1;P1;durP2;ratioP2;P2;SDS_P1;SDS_P2;PMS_P1;PMS_P2;Temp;Humidity;BMP_temperature;BMP_pressure;BME280_temperature;BME280_humidity;BME280_pressure;Samples;Min_cycle;Max_cycle;Signal;HPM_P1;HPM_P2
2024/04/15 00:01:21;;;;;;;12.25;4.55;;;9.80;99.90;;;;;;5381706;26;20046;-69
2024/04/15 00:03:47;;;;;;;10.98;4.13;;;9.80;99.90;;;;;;5381756;26;19992;-69
2024/04/15 00:06:12;;;;;;;9.15;4.13;;;9.80;99.90;;;;;;5381400;26;20035;-69
2024/04/15 00:08:38;;;;;;;16.52;4.43;;;9.80;99.90;;;;;;5384731;26;19988;-69
2024/04/15 00:11:04;;;;;;;9.25;4.47;;;9.80;99.90;;;;;;5384762;26;19988;-69
2024/04/15 00:13:30;;;;;;;11.90;4.65;;;9.80;99.90;;;;;;5385100;26;19999;-69
2024/04/15 00:15:57;;;;;;;11.77;4.55;;;9.70;99.90;;;;;;5384897;26;20336;-68
2024/04/15 00:18:23;;;;;;;17.90;5.85;;;9.70;99.90;;;;;;5384918;26;19999;-68
2024/04/15 00:20:56;;;;;;;19.40;5.40;;;9.70;99.90;;;;;;5385058;26;20503;-68
2024/04/15 00:23:22;;;;;;;19.42;5.45;;;9.60;99.90;;;;;;5385160;26;19999;-68
2024/04/15 00:25:47;;;;;;;13.20;5.50;;;9.60;99.90;;;;;;5385040;26;19988;-69
2024/04/15 00:28:13;;;;;;;15.40;5.05;;;9.60;99.90;;;;;;5384957;26;20003;-69
2024/04/15 00:30:38;;;;;;;10.63;4.80;;;9.50;99.90;;;;;;5385327;26;19992;-68
2024/04/15 00:33:04;;;;;;;15.52;5.20;;;9.40;99.90;;;;;;5384817;26;20067;-69
2024/04/15 00:35:29;;;;;;;11.95;5.50;;;9.40;99.90;;;;;;5384653;26;20003;-69
2024/04/15 00:37:55;;;;;;;10.88;5.97;;;9.40;99.90;;;;;;5384621;26;20318;-69
2024/04/15 00:40:20;;;;;;;15.60;5.70;;;9.40;99.90;;;;;;5384633;26;20340;-69
2024/04/15 00:42:46;;;;;;;11.85;6.30;;;9.30;99.90;;;;;;5384605;26;19996;-69
2024/04/15 00:45:29;;;;;;;11.77;5.95;;;9.30;99.90;;;;;;5384621;26;20442;-69
2024/04/15 00:47:55;;;;;;;15.25;6.07;;;9.30;99.90;;;;;;5384347;26;20066;-69
2024/04/15 00:50:22;;;;;;;11.85;6.05;;;9.30;99.90;;;;;;5384200;26;20442;-69
2024/04/15 00:52:47;;;;;;;12.15;6.18;;;9.30;99.90;;;;;;5384380;26;20061;-68
2024/04/15 00:55:13;;;;;;;12.25;5.45;;;9.20;99.90;;;;;;5384345;26;20000;-69
2024/04/15 00:57:43;;;;;;;14.60;6.10;;;9.20;99.90;;;;;;5384516;26;19997;-69
2024/04/15 01:00:11;;;;;;;17.33;6.45;;;9.20;99.90;;;;;;5384462;26;20008;-69
2024/04/15 01:02:38;;;;;;;20.77;7.50;;;9.30;99.90;;;;;;5384620;26;19992;-69
2024/04/15 01:05:04;;;;;;;17.38;6.68;;;9.20;99.90;;;;;;5384291;26;20528;-69
2024/04/15 01:07:30;;;;;;;14.05;6.75;;;9.20;99.90;;;;;;5384006;26;20430;-68
2024/04/15 01:09:56;;;;;;;17.45;7.38;;;9.20;99.90;;;;;;5384588;26;19992;-69
2024/04/15 01:12:22;;;;;;;12.93;7.43;;;9.20;99.90;;;;;;5384045;26;19992;-69
2024/04/15 01:14:48;;;;;;;14.88;7.90;;;9.20;99.90;;;;;;5384148;26;19992;-69
2024/04/15 01:17:13;;;;;;;18.27;8.15;;;9.20;99.90;;;;;;5383984;26;20065;-69
2024/04/15 01:19:39;;;;;;;17.85;7.93;;;9.20;99.90;;;;;;5383590;26;20418;-69
2024/04/15 01:22:07;;;;;;;15.63;8.32;;;9.30;99.90;;;;;;5384624;26;19992;-69
2024/04/15 01:24:33;;;;;;;13.93;9.02;;;9.30;99.90;;;;;;5384272;26;20003;-69
2024/04/15 01:26:59;;;;;;;16.05;8.88;;;9.30;99.90;;;;;;5384466;26;20000;-69
2024/04/15 01:29:24;;;;;;;17.27;9.27;;;9.30;99.90;;;;;;5384457;26;19992;-69
2024/04/15 01:31:50;;;;;;;18.42;9.30;;;9.40;99.90;;;;;;5384408;26;20007;-69
2024/04/15 01:34:15;;;;;;;18.58;8.88;;;9.30;99.90;;;;;;5384301;26;20004;-69
2024/04/15 01:36:41;;;;;;;20.73;10.50;;;9.50;99.90;;;;;;5383700;26;19992;-69
2024/04/15 01:39:06;;;;;;;20.23;10.23;;;9.10;99.90;;;;;;5383564;26;20065;-68
2024/04/15 01:41:32;;;;;;;22.88;10.00;;;9.10;99.90;;;;;;5383473;26;20007;-69
2024/04/15 01:43:57;;;;;;;16.50;9.85;;;9.10;99.90;;;;;;5383425;26;19992;-68
2024/04/15 01:46:23;;;;;;;17.30;9.98;;;9.20;99.90;;;;;;5383672;26;19992;-69
2024/04/15 01:48:49;;;;;;;18.75;10.05;;;9.10;99.90;;;;;;5383879;26;19992;-69
2024/04/15 01:51:14;;;;;;;18.75;10.35;;;9.20;99.90;;;;;;5383793;26;20322;-69
2024/04/15 01:53:40;;;;;;;17.60;9.70;;;9.20;99.90;;;;;;5383566;26;20003;-69
2024/04/15 01:56:05;;;;;;;19.50;9.57;;;9.20;99.90;;;;;;5383382;26;19988;-68
2024/04/15 01:58:31;;;;;;;20.85;10.13;;;9.20;99.90;;;;;;5383238;26;20065;-68
2024/04/15 02:01:04;;;;;;;20.38;9.15;;;9.10;99.90;;;;;;5383582;26;19992;-69
2024/04/15 02:03:30;;;;;;;;;;;9.10;99.90;;;;;;5384440;26;20003;-68
2024/04/15 02:05:56;;;;;;;17.23;8.27;;;9.20;99.90;;;;;;5383327;26;20360;-68
2024/04/15 02:08:21;;;;;;;16.25;8.43;;;9.10;99.90;;;;;;5383353;26;19988;-69
2024/04/15 02:10:47;;;;;;;15.45;8.40;;;8.90;99.90;;;;;;5383318;26;19993;-69
2024/04/15 02:13:12;;;;;;;15.10;8.40;;;9.00;99.90;;;;;;5383575;26;19992;-69
2024/04/15 02:15:39;;;;;;;13.90;7.72;;;;;;;;;;5383243;26;19992;-68
2024/04/15 02:18:05;;;;;;;15.55;8.30;;;8.90;99.90;;;;;;5383303;26;20003;-69
2024/04/15 02:20:30;;;;;;;18.40;8.15;;;8.90;99.90;;;;;;5383059;26;19996;-69
2024/04/15 02:22:56;;;;;;;17.02;7.82;;;8.90;99.90;;;;;;5383262;26;20004;-69
2024/04/15 02:25:22;;;;;;;16.70;7.97;;;9.00;99.90;;;;;;5383255;26;20051;-69
2024/04/15 02:27:47;;;;;;;15.93;7.95;;;9.00;99.90;;;;;;5383291;26;20007;-69
2024/04/15 02:30:13;;;;;;;20.75;9.27;;;9.00;99.90;;;;;;5382832;26;20438;-69
2024/04/15 02:32:42;;;;;;;18.85;8.45;;;9.10;99.90;;;;;;5382945;26;20004;-69
2024/04/15 02:35:07;;;;;;;16.23;8.20;;;8.90;99.90;;;;;;5383184;26;20006;-68
2024/04/15 02:37:33;;;;;;;14.57;8.95;;;8.90;99.90;;;;;;5382741;26;20439;-68
2024/04/15 02:39:58;;;;;;;23.13;9.80;;;9.00;99.90;;;;;;5382696;26;20446;-69
2024/04/15 02:42:24;;;;;;;19.60;9.82;;;9.00;99.90;;;;;;5382972;26;19995;-69
2024/04/15 02:44:49;;;;;;;23.67;10.13;;;9.00;99.90;;;;;;5382891;26;20002;-69
2024/04/15 02:47:15;;;;;;;20.48;10.35;;;8.90;99.90;;;;;;5382876;26;19992;-70
2024/04/15 02:49:40;;;;;;;23.27;10.90;;;8.90;99.90;;;;;;5382718;26;20017;-69
2024/04/15 02:52:06;;;;;;;22.80;11.00;;;8.90;99.90;;;;;;5383268;26;20061;-69
2024/04/15 02:54:31;;;;;;;17.52;10.20;;;8.90;99.90;;;;;;5382508;26;20438;-69
2024/04/15 02:56:57;;;;;;;20.88;10.75;;;8.90;99.90;;;;;;5382613;26;20400;-69
2024/04/15 02:59:23;;;;;;;18.33;10.63;;;8.90;99.90;;;;;;5382593;26;20004;-69
2024/04/15 03:01:49;;;;;;;22.17;11.68;;;8.90;99.90;;;;;;5382839;26;20326;-69
2024/04/15 03:04:15;;;;;;;22.17;12.02;;;8.90;99.90;;;;;;5382501;26;20370;-68
2024/04/15 03:06:40;;;;;;;27.25;11.55;;;8.90;99.90;;;;;;5382547;26;19992;-69
2024/04/15 03:09:08;;;;;;;25.38;12.40;;;8.90;99.90;;;;;;5382608;26;20020;-69
2024/04/15 03:11:34;;;;;;;22.63;12.05;;;8.90;99.90;;;;;;5382365;26;20016;-70
2024/04/15 03:13:59;;;;;;;20.83;11.73;;;8.90;99.90;;;;;;5382381;26;19988;-69
2024/04/15 03:16:25;;;;;;;22.83;11.32;;;8.90;99.90;;;;;;5382454;26;20351;-69
2024/04/15 03:18:51;;;;;;;20.00;12.20;;;9.00;99.90;;;;;;5382812;26;20438;-69
2024/04/15 03:21:16;;;;;;;23.15;13.23;;;9.00;99.90;;;;;;5382597;26;20065;-69
2024/04/15 03:23:42;;;;;;;18.00;12.48;;;9.00;99.90;;;;;;5382881;26;20003;-69
2024/04/15 03:26:08;;;;;;;23.67;12.73;;;9.00;99.90;;;;;;5382512;26;20007;-69
2024/04/15 03:28:33;;;;;;;19.52;14.02;;;9.10;99.90;;;;;;5382584;26;20073;-68
2024/04/15 03:31:00;;;;;;;21.17;13.77;;;9.10;99.90;;;;;;5382211;26;20001;-68
2024/04/15 03:33:25;;;;;;;36.85;14.65;;;9.10;99.90;;;;;;5382521;26;19988;-69
2024/04/15 03:35:51;;;;;;;23.40;13.50;;;9.10;99.90;;;;;;5382323;26;19999;-69
2024/04/15 03:38:16;;;;;;;23.85;14.60;;;9.00;99.90;;;;;;5382330;26;19992;-69
2024/04/15 03:40:42;;;;;;;24.35;13.70;;;9.00;99.90;;;;;;5382073;26;19989;-69
2024/04/15 03:43:07;;;;;;;25.90;14.43;;;9.00;99.90;;;;;;5381488;26;20008;-69
2024/04/15 03:45:33;;;;;;;26.13;14.80;;;9.10;99.90;;;;;;5382502;26;19999;-69
2024/04/15 03:47:58;;;;;;;25.67;14.57;;;9.10;99.90;;;;;;5382202;26;20078;-69
2024/04/15 03:50:24;;;;;;;26.58;14.40;;;9.00;99.90;;;;;;5382041;26;20396;-69
2024/04/15 03:52:50;;;;;;;26.30;16.63;;;9.10;99.90;;;;;;5382342;26;20434;-69
2024/04/15 03:55:15;;;;;;;31.38;17.38;;;8.90;99.90;;;;;;5381844;26;19992;-69
2024/04/15 03:57:41;;;;;;;30.20;18.27;;;9.00;99.90;;;;;;5382025;26;20061;-69
2024/04/15 04:00:07;;;;;;;39.17;20.02;;;9.00;99.90;;;;;;5382095;26;20004;-69
2024/04/15 04:02:33;;;;;;;37.70;19.90;;;8.90;99.90;;;;;;5382178;26;20000;-69
2024/04/15 04:04:59;;;;;;;36.17;21.20;;;9.10;99.90;;;;;;5381573;26;20457;-70
2024/04/15 04:07:24;;;;;;;39.40;23.15;;;9.10;99.90;;;;;;5381911;26;20003;-69
2024/04/15 04:09:50;;;;;;;45.38;23.85;;;9.10;99.90;;;;;;5381806;26;20028;-69
2024/04/15 04:12:16;;;;;;;35.35;22.90;;;8.90;99.90;;;;;;5381515;26;19995;-70
2024/04/15 04:14:41;;;;;;;38.17;23.10;;;9.00;99.90;;;;;;5381673;26;19992;-69
2024/04/15 04:17:07;;;;;;;40.17;22.95;;;9.10;99.90;;;;;;5381273;26;19994;-69
2024/04/15 04:19:32;;;;;;;40.85;21.95;;;9.10;99.90;;;;;;5382214;26;19988;-69
2024/04/15 04:21:58;;;;;;;36.30;21.38;;;9.10;99.90;;;;;;5381688;26;19996;-69
2024/04/15 04:24:24;;;;;;;36.20;21.38;;;9.10;99.90;;;;;;5381450;26;20326;-69
2024/04/15 04:26:49;;;;;;;40.78;22.95;;;9.00;99.90;;;;;;5381839;26;19999;-69
2024/04/15 04:29:15;;;;;;;42.72;22.13;;;9.10;99.90;;;;;;5381433;26;19996;-68
2024/04/15 04:31:40;;;;;;;39.75;22.60;;;9.10;99.90;;;;;;5381810;26;20058;-68
2024/04/15 04:34:06;;;;;;;42.40;23.83;;;8.90;99.90;;;;;;5381386;26;20008;-69
2024/04/15 04:36:31;;;;;;;42.85;23.33;;;8.90;99.90;;;;;;5381406;26;19992;-69
2024/04/15 04:38:57;;;;;;;41.90;23.40;;;9.00;99.90;;;;;;5381234;26;20000;-69
2024/04/15 04:41:23;;;;;;;44.15;23.70;;;8.90;99.90;;;;;;5381248;26;19996;-69
2024/04/15 04:43:49;;;;;;;53.83;25.08;;;8.90;99.90;;;;;;5381166;26;19996;-69
2024/04/15 04:46:15;;;;;;;47.67;25.77;;;8.90;99.90;;;;;;5381140;26;20062;-69
2024/04/15 04:48:40;;;;;;;48.33;26.20;;;8.90;99.90;;;;;;5381395;26;20442;-68
2024/04/15 04:51:07;;;;;;;50.53;26.95;;;8.90;99.90;;;;;;5381357;26;19993;-69
2024/04/15 04:53:33;;;;;;;50.42;26.48;;;8.90;99.90;;;;;;5381651;26;19988;-69
2024/04/15 04:56:14;;;;;;;44.38;27.15;;;8.80;99.90;;;;;;5384922;26;19993;-69
2024/04/15 04:58:42;;;;;;;50.78;27.77;;;8.80;99.90;;;;;;5384746;26;19992;-68
2024/04/15 05:01:12;;;;;;;47.95;27.42;;;8.80;99.90;;;;;;5384557;26;20066;-69
2024/04/15 05:03:41;;;;;;;49.05;27.10;;;8.80;99.90;;;;;;5384288;26;20003;-69
2024/04/15 05:06:07;;;;;;;49.15;26.40;;;8.80;99.90;;;;;;5384253;26;20020;-69
2024/04/15 05:08:33;;;;;;;51.80;27.25;;;8.80;99.90;;;;;;5384234;26;20007;-68
2024/04/15 05:10:58;;;;;;;43.47;26.80;;;8.70;99.90;;;;;;5384218;26;19996;-69
2024/04/15 05:13:24;;;;;;;48.17;26.55;;;8.70;99.90;;;;;;5384331;26;20397;-69
2024/04/15 05:15:49;;;;;;;49.55;26.70;;;8.70;99.90;;;;;;5383774;26;20000;-69
2024/04/15 05:18:15;;;;;;;46.40;28.02;;;8.70;99.90;;;;;;5384445;26;19992;-68
2024/04/15 05:20:40;;;;;;;47.10;27.33;;;8.80;99.90;;;;;;5384418;26;19996;-69
2024/04/15 05:23:06;;;;;;;44.08;25.17;;;8.80;99.90;;;;;;5384365;26;20081;-69
2024/04/15 05:25:31;;;;;;;45.60;24.27;;;8.90;99.90;;;;;;5384002;26;20004;-68
2024/04/15 05:27:57;;;;;;;44.97;25.55;;;8.90;99.90;;;;;;5384388;26;20004;-69
2024/04/15 05:30:22;;;;;;;49.58;25.02;;;8.90;99.90;;;;;;5384171;26;20396;-69
2024/04/15 05:32:48;;;;;;;44.28;23.58;;;8.90;99.90;;;;;;5384258;26;20408;-69
2024/04/15 05:35:14;;;;;;;42.92;23.33;;;8.90;99.90;;;;;;5384005;26;20323;-69
2024/04/15 05:37:39;;;;;;;45.17;21.58;;;8.90;99.90;;;;;;5383733;26;19994;-68
2024/04/15 05:40:05;;;;;;;44.45;23.15;;;9.00;99.90;;;;;;5383809;26;20004;-68
2024/04/15 05:42:31;;;;;;;37.95;20.10;;;9.00;99.90;;;;;;5383627;26;20110;-68
2024/04/15 05:44:56;;;;;;;34.95;18.90;;;9.00;99.90;;;;;;5383508;26;20007;-68
2024/04/15 05:47:23;;;;;;;35.45;17.55;;;9.10;99.90;;;;;;5383841;26;20024;-68
2024/04/15 05:49:49;;;;;;;29.75;16.27;;;9.20;99.90;;;;;;5383355;26;19996;-68
2024/04/15 05:52:15;;;;;;;30.70;15.68;;;9.30;99.90;;;;;;5383534;26;20393;-68
2024/04/15 05:54:41;;;;;;;25.85;13.68;;;9.30;99.90;;;;;;5383672;26;20075;-68
2024/04/15 05:57:06;;;;;;;26.20;13.75;;;9.20;99.90;;;;;;5383066;26;19993;-68
2024/04/15 05:59:32;;;;;;;22.65;12.02;;;9.40;99.90;;;;;;5383394;26;19993;-68
2024/04/15 06:01:58;;;;;;;25.42;12.57;;;9.80;99.90;;;;;;5383614;26;20000;-68
2024/04/15 06:04:24;;;;;;;18.60;9.68;;;10.10;99.90;;;;;;5379753;26;20004;-68
2024/04/15 06:06:49;;;;;;;23.55;10.10;;;10.60;99.90;;;;;;5370463;26;20004;-69
2024/04/15 06:09:15;;;;;;;18.85;9.32;;;11.50;36.80;;;;;;5354592;26;20020;-68
2024/04/15 06:11:41;;;;;;;17.50;8.63;;;12.10;1.00;;;;;;5373389;26;20091;-68
2024/04/15 06:14:06;;;;;;;19.67;9.32;;;12.30;1.00;;;;;;5369270;26;20006;-69
2024/04/15 06:16:32;;;;;;;16.13;8.48;;;12.90;1.00;;;;;;5360746;26;20012;-69
2024/04/15 06:18:57;;;;;;;17.48;8.25;;;13.10;1.00;;;;;;5354038;26;20327;-68
2024/04/15 06:21:26;;;;;;;18.77;8.68;;;13.40;99.90;;;;;;5371375;26;20329;-68
2024/04/15 06:23:51;;;;;;;17.27;8.57;;;12.90;99.90;;;;;;5371539;26;20029;-68
2024/04/15 06:26:17;;;;;;;19.30;10.20;;;11.90;1.00;;;;;;5371150;26;20330;-68
2024/04/15 06:28:43;;;;;;;22.52;10.05;;;11.50;1.00;;;;;;5366660;26;20004;-69
2024/04/15 06:31:09;;;;;;;23.55;11.38;;;11.00;1.00;;;;;;5355124;26;20012;-69
2024/04/15 06:33:35;;;;;;;22.92;11.30;;;10.80;1.00;;;;;;5404338;26;19995;-69
2024/04/15 06:36:00;;;;;;;18.45;10.00;;;10.60;20.50;;;;;;5354624;26;20088;-70
2024/04/15 06:38:26;;;;;;;22.45;10.73;;;10.60;1.00;;;;;;5376513;26;20333;-70
2024/04/15 06:40:52;;;;;;;22.88;10.98;;;10.60;1.00;;;;;;5362256;26;20000;-70
2024/04/15 06:43:17;;;;;;;23.45;11.65;;;10.50;15.20;;;;;;5360164;26;20394;-70
2024/04/15 06:45:43;;;;;;;22.15;10.65;;;10.40;10.10;;;;;;5355295;26;20004;-69
2024/04/15 06:48:08;;;;;;;25.25;12.20;;;10.30;13.60;;;;;;5360432;26;20336;-70
2024/04/15 06:50:34;;;;;;;20.27;10.10;;;10.20;16.80;;;;;;5363834;26;20340;-68
2024/04/15 06:53:03;;;;;;;24.60;11.30;;;10.30;14.10;;;;;;5353479;26;20000;-66
2024/04/15 06:55:29;;;;;;;20.88;10.90;;;10.40;20.30;;;;;;5357410;26;20001;-68
2024/04/15 06:57:54;;;;;;;24.27;10.75;;;10.70;1.00;;;;;;5372644;26;20040;-67
2024/04/15 07:00:20;;;;;;;21.45;11.05;;;11.20;1.00;;;;;;5369464;26;20004;-69
2024/04/15 07:02:46;;;;;;;16.00;10.80;;;11.80;1.00;;;;;;5365475;26;19997;-68
2024/04/15 07:05:11;;;;;;;23.05;10.30;;;12.30;1.00;;;;;;5365471;26;20015;-67
2024/04/15 07:07:37;;;;;;;21.73;9.52;;;12.70;1.00;;;;;;5369119;26;20000;-65
2024/04/15 07:10:04;;;;;;;20.95;10.32;;;12.10;99.90;;;;;;5370013;26;20393;-65
2024/04/15 07:12:29;;;;;;;19.77;10.32;;;11.80;1.00;;;;;;5352016;26;20009;-66
2024/04/15 07:14:55;;;;;;;20.48;9.07;;;11.80;1.00;;;;;;5366639;26;20008;-66
2024/04/15 07:17:21;;;;;;;20.63;10.25;;;11.50;1.00;;;;;;5357850;26;20011;-67
2024/04/15 07:19:47;;;;;;;22.27;10.70;;;11.00;1.00;;;;;;5367817;26;20023;-66
2024/04/15 07:22:12;;;;;;;19.88;10.27;;;10.90;1.00;;;;;;5361940;26;20013;-68
2024/04/15 07:24:38;;;;;;;17.50;10.30;;;10.60;1.00;;;;;;5365326;26;20082;-66
2024/04/15 07:27:04;;;;;;;22.48;10.32;;;10.80;1.00;;;;;;5361006;26;20023;-66
2024/04/15 07:29:29;;;;;;;20.75;11.02;;;10.70;1.00;;;;;;5350649;26;19996;-66
2024/04/15 07:31:55;;;;;;;20.35;10.63;;;10.70;1.00;;;;;;5349267;26;20020;-67
2024/04/15 07:34:21;;;;;;;20.77;9.60;;;10.40;1.00;;;;;;5352444;26;20000;-65
2024/04/15 07:36:46;;;;;;;21.30;9.57;;;10.40;1.00;;;;;;5354365;26;20008;-65
2024/04/15 07:39:13;;;;;;;24.38;10.70;;;10.30;1.00;;;;;;5363923;26;20001;-64
2024/04/15 07:41:38;;;;;;;16.05;9.75;;;10.50;1.00;;;;;;5362621;26;20079;-62
2024/04/15 07:44:04;;;;;;;22.50;9.57;;;10.70;1.00;;;;;;5360323;26;20012;-63
2024/04/15 07:46:29;;;;;;;19.25;9.30;;;10.80;1.00;;;;;;5364151;26;20028;-63
2024/04/15 07:48:55;;;;;;;24.38;12.52;;;10.60;1.00;;;;;;5351912;26;20025;-63
2024/04/15 07:51:21;;;;;;;23.60;10.27;;;10.50;1.00;;;;;;5362572;26;20081;-64
2024/04/15 07:53:47;;;;;;;24.92;11.48;;;10.40;1.00;;;;;;5359817;26;20008;-64
2024/04/15 07:56:12;;;;;;;22.20;11.15;;;10.40;1.00;;;;;;5354481;26;20508;-65
2024/04/15 07:58:38;;;;;;;23.33;10.82;;;10.30;1.00;;;;;;5360939;26;20004;-65
2024/04/15 08:01:04;;;;;;;19.33;10.70;;;10.20;1.00;;;;;;5372057;26;20069;-64
2024/04/15 08:03:29;;;;;;;22.25;11.35;;;10.50;1.00;;;;;;5372635;26;20015;-65
2024/04/15 08:05:55;;;;;;;23.98;10.95;;;10.80;1.00;;;;;;5362922;26;20439;-64
2024/04/15 08:08:20;;;;;;;19.45;10.40;;;11.20;1.00;;;;;;5367408;26;20074;-65
2024/04/15 08:10:46;;;;;;;25.35;10.27;;;11.40;1.00;;;;;;5356864;26;20009;-64
2024/04/15 08:13:11;;;;;;;17.42;9.90;;;12.20;99.90;;;;;;5356095;26;19997;-64
2024/04/15 08:15:41;;;;;;;17.88;9.40;;;13.20;99.90;;;;;;5346599;26;20013;-64
2024/04/15 08:18:07;;;;;;;23.58;9.73;;;13.60;99.90;;;;;;5364474;26;20008;-64
2024/04/15 08:20:33;;;;;;;22.98;10.07;;;13.60;1.00;;;;;;5368223;26;19992;-64
2024/04/15 08:22:58;;;;;;;15.00;10.75;;;13.10;1.00;;;;;;5361014;26;20016;-68
2024/04/15 08:25:24;;;;;;;18.50;9.90;;;13.10;99.90;;;;;;5368434;26;20067;-69
2024/04/15 08:27:49;;;;;;;19.90;9.57;;;13.30;1.00;;;;;;5362532;26;20009;-67
2024/04/15 08:30:15;;;;;;;17.80;10.35;;;13.70;1.00;;;;;;5358863;26;20000;-66
2024/04/15 08:32:41;;;;;;;20.70;9.68;;;;;;;;;;5375834;26;20000;-66
2024/04/15 08:35:07;;;;;;;17.27;8.85;;;14.40;99.90;;;;;;5363383;26;20000;-67
2024/04/15 08:37:32;;;;;;;15.05;9.82;;;13.60;24.20;;;;;;5368240;26;20001;-68
2024/04/15 08:39:59;;;;;;;21.88;10.98;;;12.80;99.90;;;;;;5364723;26;20077;-64
2024/04/15 08:42:47;;;;;;;17.70;9.63;;;12.60;99.90;;;;;;5361222;26;20019;-63
2024/04/15 08:45:18;;;;;;;17.23;9.18;;;12.40;99.90;;;;;;5358861;26;20077;-64
2024/04/15 08:47:48;;;;;;;17.42;8.73;;;12.40;1.00;;;;;;5360419;26;20009;-64
2024/04/15 08:50:14;;;;;;;23.45;8.88;;;12.90;99.90;;;;;;5367860;26;20039;-64
2024/04/15 08:52:41;;;;;;;17.35;7.68;;;12.80;1.00;;;;;;5354211;26;20011;-65
2024/04/15 08:55:08;;;;;;;13.32;6.70;;;12.90;99.90;;;;;;5381142;26;20078;-64
2024/04/15 08:57:35;;;;;;;14.95;6.20;;;13.00;99.90;;;;;;5369246;26;20001;-64
2024/04/15 09:00:02;;;;;;;14.25;5.40;;;12.60;99.90;;;;;;5362036;26;22726;-64
2024/04/15 09:02:30;;;;;;;11.45;6.32;;;12.50;16.70;;;;;;5392647;26;20015;-65
2024/04/15 09:04:56;;;;;;;12.27;6.10;;;12.50;11.50;;;;;;5363905;26;20400;-64
2024/04/15 09:07:22;;;;;;;13.20;5.80;;;12.60;99.90;;;;;;5352610;26;20429;-65
2024/04/15 09:09:48;;;;;;;12.50;6.30;;;12.40;16.20;;;;;;5376021;26;20000;-64
2024/04/15 09:12:13;;;;;;;14.27;6.20;;;12.50;99.90;;;;;;5368728;26;20009;-63
2024/04/15 09:14:39;;;;;;;9.07;5.07;;;12.30;99.90;;;;;;5358461;26;20005;-64
2024/04/15 09:17:05;;;;;;;13.98;5.80;;;12.10;99.90;;;;;;5378101;26;20004;-65
2024/04/15 09:19:32;;;;;;;14.95;4.90;;;12.00;99.90;;;;;;5367772;26;20001;-65
2024/04/15 09:22:00;;;;;;;11.32;5.38;;;11.70;1.00;;;;;;5354780;26;20040;-65
2024/04/15 09:24:26;;;;;;;13.38;5.38;;;11.80;99.90;;;;;;5368545;26;20032;-64
2024/04/15 09:26:51;;;;;;;12.13;4.25;;;12.00;99.90;;;;;;5362485;26;20457;-64
2024/04/15 09:29:18;;;;;;;11.55;3.95;;;12.00;99.90;;;;;;5350084;26;20001;-64
2024/04/15 09:31:43;;;;;;;12.88;3.80;;;11.90;99.90;;;;;;5362659;26;20001;-65
2024/04/15 09:34:10;;;;;;;9.25;3.78;;;12.20;99.90;;;;;;5360030;26;20327;-64
2024/04/15 09:36:43;;;;;;;15.27;4.13;;;12.80;1.00;;;;;;5359690;26;20015;-63
2024/04/15 09:39:09;;;;;;;8.15;3.70;;;13.30;47.90;;;;;;5369908;26;20074;-63
2024/04/15 09:41:34;;;;;;;10.70;3.55;;;13.10;99.90;;;;;;5351561;26;20004;-64
2024/04/15 09:44:00;;;;;;;13.65;3.85;;;12.50;99.90;;;;;;5369816;26;20412;-64
2024/04/15 09:46:31;;;;;;;9.38;3.53;;;12.60;99.90;;;;;;5351542;26;20005;-64
2024/04/15 09:48:57;;;;;;;9.80;3.65;;;12.60;61.40;;;;;;5371284;26;20004;-66
2024/04/15 09:51:24;;;;;;;9.70;3.60;;;12.40;54.60;;;;;;5369368;26;20008;-66
2024/04/15 09:53:52;;;;;;;8.13;3.60;;;12.70;1.00;;;;;;5347833;26;20000;-66
2024/04/15 09:56:26;;;;;;;8.18;3.20;;;13.20;1.00;;;;;;5357097;26;20396;-66
2024/04/15 09:58:57;;;;;;;11.57;3.10;;;13.30;1.00;;;;;;5352212;26;19996;-64
2024/04/15 10:01:31;;;;;;;11.60;3.03;;;13.70;1.00;;;;;;5355394;26;20077;-65
2024/04/15 10:04:01;;;;;;;8.55;3.25;;;14.40;1.00;;;;;;5372000;26;20011;-64
2024/04/15 10:06:35;;;;;;;9.48;2.90;;;14.40;99.90;;;;;;5374434;26;20012;-64
2024/04/15 10:09:01;;;;;;;7.80;3.22;;;13.90;99.90;;;;;;5359388;26;20521;-64
2024/04/15 10:11:29;;;;;;;7.80;3.00;;;13.80;1.00;;;;;;5362941;26;20008;-66
2024/04/15 10:13:54;;;;;;;7.82;2.50;;;13.60;99.90;;;;;;5370098;26;20000;-62
2024/04/15 10:16:20;;;;;;;9.20;2.50;;;13.60;99.90;;;;;;5372546;26;20015;-66
2024/04/15 10:18:54;;;;;;;9.80;3.00;;;13.60;99.90;;;;;;5394313;26;20011;-68
2024/04/15 10:21:19;;;;;;;10.13;2.70;;;13.30;99.90;;;;;;5375169;26;20077;-64
2024/04/15 10:23:45;;;;;;;8.90;2.60;;;13.10;99.90;;;;;;5379700;26;20004;-64
2024/04/15 10:26:11;;;;;;;7.35;2.80;;;13.10;99.90;;;;;;5356837;26;20011;-63
2024/04/15 10:28:36;;;;;;;9.48;2.33;;;13.30;99.90;;;;;;5360836;26;20019;-63
2024/04/15 10:31:02;;;;;;;7.75;2.55;;;13.50;99.90;;;;;;5370344;26;20008;-63
2024/04/15 10:33:28;;;;;;;11.07;2.50;;;13.70;99.90;;;;;;5355282;26;20403;-62
2024/04/15 10:35:53;;;;;;;7.00;2.38;;;14.20;99.90;;;;;;5365030;26;20000;-63
2024/04/15 10:38:19;;;;;;;7.55;2.63;;;14.30;99.90;;;;;;5365038;26;20008;-65
2024/04/15 10:40:48;;;;;;;8.85;2.17;;;13.80;99.90;;;;;;5351877;26;20011;-67
2024/04/15 10:43:16;;;;;;;5.57;2.10;;;13.70;99.90;;;;;;5354954;26;20015;-67
2024/04/15 10:45:42;;;;;;;5.40;2.55;;;14.20;99.90;;;;;;5360346;26;20412;-66
2024/04/15 10:48:09;;;;;;;8.00;2.25;;;14.80;99.90;;;;;;5354756;26;20020;-67
2024/04/15 10:50:35;;;;;;;6.80;1.67;;;15.00;99.90;;;;;;5355527;26;20446;-68
2024/04/15 10:53:01;;;;;;;8.48;2.20;;;14.40;99.90;;;;;;5366303;26;20001;-67
2024/04/15 10:55:27;;;;;;;11.75;2.10;;;14.40;99.90;;;;;;5364295;26;20012;-69
2024/04/15 10:57:53;;;;;;;9.30;2.33;;;14.50;99.90;;;;;;5363453;26;20688;-68
2024/04/15 11:00:21;;;;;;;8.57;2.05;;;14.80;99.90;;;;;;5368430;26;20007;-67
2024/04/15 11:02:50;;;;;;;6.53;1.98;;;14.20;99.90;;;;;;5356966;26;20023;-68
2024/04/15 11:05:16;;;;;;;8.63;2.00;;;14.20;99.90;;;;;;5361753;26;20005;-67
2024/04/15 11:07:43;;;;;;;5.95;1.90;;;14.20;99.90;;;;;;5372868;26;20011;-68
2024/04/15 11:10:11;;;;;;;11.70;2.78;;;14.10;99.90;;;;;;5382230;26;20077;-67
2024/04/15 11:12:37;;;;;;;6.45;2.28;;;14.30;99.90;;;;;;5354102;26;19997;-68
2024/04/15 11:15:03;;;;;;;9.93;2.17;;;13.80;99.90;;;;;;5349334;26;20001;-68
2024/04/15 11:17:30;;;;;;;9.63;2.22;;;13.70;99.90;;;;;;5372238;26;19992;-67
2024/04/15 11:20:00;;;;;;;10.65;2.95;;;13.50;99.90;;;;;;5358185;26;20024;-68
2024/04/15 11:22:27;;;;;;;6.68;2.00;;;13.70;99.90;;;;;;5349879;26;20000;-66
2024/04/15 11:24:53;;;;;;;10.95;2.67;;;13.90;99.90;;;;;;5371615;26;20010;-67
2024/04/15 11:27:19;;;;;;;7.70;2.45;;;14.50;99.90;;;;;;5358846;26;19997;-68
2024/04/15 11:29:47;;;;;;;4.60;2.30;;;14.20;99.90;;;;;;5364116;26;20042;-66
2024/04/15 11:32:13;;;;;;;5.60;1.80;;;13.90;99.90;;;;;;5358157;26;20392;-66
2024/04/15 11:34:39;;;;;;;6.80;2.40;;;13.90;99.90;;;;;;5359869;26;20009;-70
2024/04/15 11:37:04;;;;;;;8.35;2.38;;;14.00;99.90;;;;;;5353103;26;20082;-66
2024/04/15 11:39:30;;;;;;;6.65;2.15;;;13.70;99.90;;;;;;5359239;26;20016;-69
2024/04/15 11:41:55;;;;;;;10.88;2.83;;;13.80;99.90;;;;;;5346986;26;19997;-66
2024/04/15 11:44:21;;;;;;;6.45;1.85;;;14.10;99.90;;;;;;5358073;26;20075;-68
2024/04/15 11:46:47;;;;;;;5.68;2.08;;;14.20;99.90;;;;;;5372018;26;20011;-66
2024/04/15 11:49:13;;;;;;;6.88;2.17;;;14.30;99.90;;;;;;5363134;26;20015;-67
2024/04/15 11:51:41;;;;;;;3.97;2.15;;;14.40;99.90;;;;;;5366998;26;20023;-67
2024/04/15 11:54:07;;;;;;;4.57;2.17;;;14.20;99.90;;;;;;5361402;26;20004;-66
2024/04/15 11:56:33;;;;;;;9.00;2.67;;;14.40;99.90;;;;;;5357159;26;20020;-67
2024/04/15 11:58:58;;;;;;;12.50;2.42;;;14.30;99.90;;;;;;5370909;26;19999;-65
2024/04/15 12:01:24;;;;;;;12.23;2.55;;;14.40;99.90;;;;;;5366841;26;20015;-67
2024/04/15 12:03:50;;;;;;;8.18;2.35;;;14.40;99.90;;;;;;5358785;26;20003;-66
2024/04/15 12:06:18;;;;;;;8.20;2.67;;;14.50;99.90;;;;;;5371215;26;19996;-66
2024/04/15 12:08:44;;;;;;;8.30;2.20;;;14.10;99.90;;;;;;5352248;26;20036;-66
2024/04/15 12:11:13;;;;;;;7.60;2.78;;;14.30;99.90;;;;;;5367090;26;20459;-67
2024/04/15 12:13:40;;;;;;;12.40;3.53;;;15.00;99.90;;;;;;5358732;26;20322;-67
2024/04/15 12:16:06;;;;;;;11.32;2.78;;;14.70;99.90;;;;;;5362409;26;20488;-67
2024/04/15 12:18:31;;;;;;;8.48;2.35;;;14.70;99.90;;;;;;5385093;26;20004;-67
2024/04/15 12:20:57;;;;;;;14.88;2.75;;;14.50;99.90;;;;;;5367491;26;19996;-67
2024/04/15 12:23:23;;;;;;;10.02;2.40;;;14.50;99.90;;;;;;5394221;26;20506;-68
2024/04/15 12:25:48;;;;;;;9.50;2.60;;;14.50;99.90;;;;;;5404431;26;20019;-67
2024/04/15 12:28:14;;;;;;;12.63;2.30;;;14.60;99.90;;;;;;5367199;26;19996;-66
2024/04/15 12:30:39;;;;;;;8.52;2.60;;;14.60;99.90;;;;;;5359131;26;20015;-70
2024/04/15 12:33:05;;;;;;;12.80;3.10;;;14.50;99.90;;;;;;5367903;26;20000;-68
2024/04/15 12:35:31;;;;;;;11.98;2.53;;;14.50;99.90;;;;;;5369921;26;20024;-67
2024/04/15 12:37:56;;;;;;;13.23;2.90;;;14.40;99.90;;;;;;5365411;26;20008;-70